Time;durP1;ratioP1;P1;durP2;ratioP2;P2;SDS_P1;SDS_P2;PMS_P1;PMS_P2;Temp;Humidity;BMP_temperature;BMP_pressure;BME280_temperature;BME280_humidity;BME280_pressure;Samples;Min_cycle;Max_cycle;Signal;HPM_P1;HPM_P2
2023/07/24 00:00:51;;;;;;;3.20;1.65;;;21.00;99.90;;;;;;5031240;28;20265;-64
2023/07/24 00:03:19;;;;;;;1.50;1.40;;;21.00;99.90;;;;;;5021685;28;20170;-65
2023/07/24 00:05:47;;;;;;;2.95;1.70;;;20.90;99.90;;;;;;5036922;28;20194;-64
2023/07/24 00:08:12;;;;;;;2.95;1.63;;;20.90;99.90;;;;;;5030601;28;20174;-61
2023/07/24 00:10:41;;;;;;;2.10;1.60;;;20.90;99.90;;;;;;5067695;28;20182;-64
2023/07/24 00:13:07;;;;;;;1.55;1.45;;;20.90;99.90;;;;;;5033519;28;20202;-65
2023/07/24 00:15:35;;;;;;;1.60;1.50;;;21.00;99.90;;;;;;5017541;28;20178;-63
2023/07/24 00:18:03;;;;;;;1.75;1.50;;;21.00;99.90;;;;;;5035051;28;20206;-63
2023/07/24 00:20:31;;;;;;;1.92;1.70;;;21.00;99.90;;;;;;5033371;28;20199;-65
2023/07/24 00:22:56;;;;;;;1.92;1.70;;;21.00;99.90;;;;;;5032437;28;20174;-65
2023/07/24 00:25:22;;;;;;;1.85;1.55;;;21.00;99.90;;;;;;5036309;28;20178;-65
2023/07/24 00:27:47;;;;;;;1.50;1.33;;;21.00;99.90;;;;;;5037523;28;20162;-65
2023/07/24 00:30:16;;;;;;;2.42;1.48;;;21.00;99.90;;;;;;5036444;28;20173;-65
2023/07/24 00:32:44;;;;;;;2.03;1.60;;;21.00;99.90;;;;;;5036687;28;20206;-65
2023/07/24 00:35:14;;;;;;;3.88;1.92;;;21.00;99.90;;;;;;5036671;28;20178;-65
2023/07/24 00:37:39;;;;;;;2.10;1.73;;;21.00;99.90;;;;;;5036872;28;20242;-63
2023/07/24 00:40:08;;;;;;;1.60;1.50;;;20.90;99.90;;;;;;5036737;28;20220;-65
2023/07/24 00:42:34;;;;;;;1.77;1.67;;;20.90;99.90;;;;;;5036191;28;20194;-65
2023/07/24 00:45:02;;;;;;;1.60;1.50;;;20.90;99.90;;;;;;5037670;28;20173;-65
2023/07/24 00:49:55;;;;;;;1.73;1.55;;;20.90;99.90;;;;;;5251502;23;20232;-65
2023/07/24 00:52:21;;;;;;;1.90;1.60;;;20.90;99.90;;;;;;4975444;28;20298;-65
2023/07/24 00:54:47;;;;;;;1.80;1.58;;;20.90;99.90;;;;;;4993665;28;20195;-65
2023/07/24 00:57:13;;;;;;;1.98;1.60;;;20.90;99.90;;;;;;4977408;28;20184;-65
2023/07/24 00:59:41;;;;;;;2.65;1.65;;;21.00;99.90;;;;;;4977402;28;20172;-65
2023/07/24 01:02:07;;;;;;;1.83;1.60;;;21.00;99.90;;;;;;4977262;28;20207;-64
2023/07/24 01:04:33;;;;;;;2.15;1.80;;;21.00;99.90;;;;;;4974004;28;20180;-63
2023/07/24 01:06:59;;;;;;;1.80;1.60;;;21.00;99.90;;;;;;4957991;28;20172;-63
2023/07/24 01:09:25;;;;;;;1.70;1.52;;;21.00;99.90;;;;;;4958001;28;20168;-63
2023/07/24 01:12:00;;;;;;;3.05;2.00;;;21.00;99.90;;;;;;4975255;28;20201;-63
2023/07/24 01:15:01;;;;;;;3.20;1.70;;;21.00;99.90;;;;;;4977165;28;20214;-60
2023/07/24 01:17:30;;;;;;;2.03;1.58;;;21.00;99.90;;;;;;4963359;28;20188;-60
2023/07/24 01:20:02;;;;;;;1.90;1.58;;;21.00;99.90;;;;;;4977114;28;20203;-63
2023/07/24 01:22:28;;;;;;;2.10;1.67;;;21.00;99.90;;;;;;4977205;28;20192;-63
2023/07/24 01:25:27;;;;;;;2.35;1.75;;;21.10;99.90;;;;;;4977013;28;20210;-65
2023/07/24 01:27:52;;;;;;;2.97;1.77;;;21.10;99.90;;;;;;4964323;28;20193;-65
2023/07/24 01:30:21;;;;;;;4.63;1.58;;;21.10;99.90;;;;;;4973099;28;20192;-63
2023/07/24 01:32:48;;;;;;;1.95;1.75;;;21.10;99.90;;;;;;4973189;28;20423;-59
2023/07/24 01:35:14;;;;;;;2.33;1.80;;;21.10;99.90;;;;;;4976546;28;20191;-65
2023/07/24 01:37:42;;;;;;;2.10;1.80;;;21.20;99.90;;;;;;4976287;28;20200;-63
2023/07/24 01:40:11;;;;;;;2.20;1.70;;;21.20;99.90;;;;;;4991499;28;20176;-65
2023/07/24 01:42:37;;;;;;;2.00;1.60;;;21.20;99.90;;;;;;4976603;28;20279;-65
2023/07/24 01:45:04;;;;;;;2.35;1.75;;;21.20;99.90;;;;;;4992883;28;20186;-64
2023/07/24 01:47:30;;;;;;;2.88;1.80;;;21.30;99.90;;;;;;4976414;28;20234;-64
2023/07/24 01:49:58;;;;;;;1.77;1.58;;;21.30;99.90;;;;;;4976071;28;20219;-65
2023/07/24 01:52:25;;;;;;;3.15;1.60;;;21.30;99.90;;;;;;4991881;28;20199;-65
2023/07/24 01:54:51;;;;;;;2.00;1.75;;;21.30;99.90;;;;;;4992141;28;20239;-65
2023/07/24 01:57:16;;;;;;;2.45;2.00;;;21.30;99.90;;;;;;4976219;28;20227;-65
2023/07/24 01:59:43;;;;;;;1.70;1.55;;;21.30;99.90;;;;;;4992783;28;20187;-66
2023/07/24 02:02:11;;;;;;;2.00;1.55;;;21.30;99.90;;;;;;4976122;28;20196;-65
2023/07/24 02:04:37;;;;;;;1.88;1.70;;;21.30;99.90;;;;;;4976305;28;20212;-62
2023/07/24 02:07:05;;;;;;;2.35;1.90;;;21.40;99.90;;;;;;4975917;28;20172;-65
2023/07/24 02:09:30;;;;;;;4.00;1.80;;;21.30;99.90;;;;;;4975391;28;20200;-64
2023/07/24 02:12:02;;;;;;;3.80;1.70;;;21.30;99.90;;;;;;4991775;28;20196;-65
2023/07/24 02:14:29;;;;;;;1.98;1.70;;;21.30;99.90;;;;;;4976207;28;20172;-65
2023/07/24 02:16:55;;;;;;;1.90;1.70;;;21.40;99.90;;;;;;4992113;28;20311;-63
2023/07/24 02:19:23;;;;;;;2.63;1.70;;;21.40;99.90;;;;;;4976195;28;20263;-64
2023/07/24 02:21:48;;;;;;;2.45;1.90;;;21.40;99.90;;;;;;4975917;28;20239;-65
2023/07/24 02:24:14;;;;;;;2.20;1.75;;;21.40;99.90;;;;;;4975993;28;20172;-64
2023/07/24 02:26:40;;;;;;;2.58;1.65;;;21.30;99.90;;;;;;4975405;28;20176;-64
2023/07/24 02:29:07;;;;;;;2.22;1.90;;;21.30;99.90;;;;;;4975785;28;20200;-65
2023/07/24 02:31:37;;;;;;;2.40;1.85;;;21.30;99.90;;;;;;4991829;28;20192;-65
2023/07/24 02:34:06;;;;;;;2.00;1.67;;;21.30;99.90;;;;;;4975885;28;20203;-65
2023/07/24 02:36:31;;;;;;;2.08;1.70;;;21.30;99.90;;;;;;4982954;28;20183;-65
2023/07/24 02:38:59;;;;;;;2.70;1.80;;;21.30;99.90;;;;;;4958464;28;20191;-65
2023/07/24 02:41:25;;;;;;;3.30;1.83;;;21.20;99.90;;;;;;4967027;28;20203;-65
2023/07/24 02:43:53;;;;;;;2.15;1.70;;;21.20;99.90;;;;;;4992221;28;20203;-65
2023/07/24 02:46:18;;;;;;;1.95;1.75;;;21.20;99.90;;;;;;4956507;29;20200;-64
2023/07/24 02:48:44;;;;;;;2.38;1.80;;;21.20;99.90;;;;;;4968751;28;20192;-65
2023/07/24 02:51:11;;;;;;;2.17;1.88;;;21.20;99.90;;;;;;4991561;28;20243;-66
2023/07/24 02:53:37;;;;;;;2.67;1.70;;;21.10;99.90;;;;;;4972417;28;20204;-63
2023/07/24 02:56:03;;;;;;;2.58;1.98;;;21.10;99.90;;;;;;4968125;28;20184;-63
2023/07/24 02:58:28;;;;;;;2.38;1.90;;;21.10;99.90;;;;;;4975396;28;20291;-64
2023/07/24 03:00:54;;;;;;;3.30;1.85;;;21.10;99.90;;;;;;4991411;28;20200;-61
2023/07/24 03:03:20;;;;;;;2.22;1.92;;;21.00;99.90;;;;;;4991690;28;20180;-65
2023/07/24 03:05:48;;;;;;;2.20;1.70;;;21.00;99.90;;;;;;4975575;28;20203;-65
2023/07/24 03:08:13;;;;;;;3.88;1.88;;;21.00;99.90;;;;;;4974647;28;20214;-64
2023/07/24 03:10:42;;;;;;;2.20;1.83;;;20.90;99.90;;;;;;4971455;28;20235;-66
2023/07/24 03:13:08;;;;;;;2.45;1.90;;;20.90;99.90;;;;;;4972922;28;20271;-65
2023/07/24 03:15:33;;;;;;;2.88;1.95;;;20.90;99.90;;;;;;4988088;28;20262;-66
2023/07/24 03:17:59;;;;;;;2.33;2.00;;;20.80;99.90;;;;;;4982359;28;20182;-65
2023/07/24 03:20:25;;;;;;;2.30;1.77;;;20.80;99.90;;;;;;4969031;28;20195;-59
2023/07/24 03:22:50;;;;;;;2.92;2.10;;;20.80;99.90;;;;;;4969780;28;20275;-64
2023/07/24 03:25:18;;;;;;;4.07;1.90;;;20.70;99.90;;;;;;4959672;28;20180;-60
2023/07/24 03:27:46;;;;;;;4.22;1.83;;;20.70;99.90;;;;;;4978128;28;20262;-64
2023/07/24 03:30:13;;;;;;;2.95;2.08;;;20.60;99.90;;;;;;4978346;28;20200;-66
2023/07/24 03:32:39;;;;;;;5.38;2.10;;;20.60;99.90;;;;;;4977767;28;20184;-63
2023/07/24 03:35:08;;;;;;;3.40;2.92;;;20.60;99.90;;;;;;4980600;28;20190;-62
2023/07/24 03:37:38;;;;;;;4.38;3.95;;;20.50;99.90;;;;;;4977660;28;20260;-64
2023/07/24 03:40:04;;;;;;;3.47;2.80;;;20.50;99.90;;;;;;4961538;28;20180;-64
2023/07/24 03:42:35;;;;;;;3.60;2.67;;;20.40;99.90;;;;;;4978520;28;20221;-64
2023/07/24 03:45:02;;;;;;;3.70;2.53;;;20.40;99.90;;;;;;4978870;28;20182;-64
2023/07/24 03:47:33;;;;;;;2.45;2.25;;;20.40;99.90;;;;;;4977498;28;20203;-60
2023/07/24 03:49:58;;;;;;;4.35;2.50;;;20.40;99.90;;;;;;4978578;28;20187;-64
2023/07/24 03:52:26;;;;;;;3.67;3.17;;;20.30;99.90;;;;;;4978648;28;20184;-63
2023/07/24 03:54:54;;;;;;;3.28;2.58;;;20.30;99.90;;;;;;4978650;28;20204;-64
2023/07/24 03:57:20;;;;;;;2.55;2.35;;;20.30;99.90;;;;;;4994963;28;20172;-65
2023/07/24 03:59:45;;;;;;;2.80;2.47;;;20.30;99.90;;;;;;4978854;28;20242;-64
2023/07/24 04:02:11;;;;;;;2.75;2.30;;;20.30;99.90;;;;;;4978098;28;20219;-62
2023/07/24 04:04:41;;;;;;;2.97;2.42;;;20.30;99.90;;;;;;4961096;28;20172;-65
2023/07/24 04:07:07;;;;;;;3.40;2.40;;;20.30;99.90;;;;;;4994898;28;20223;-64
2023/07/24 04:09:33;;;;;;;5.10;4.40;;;20.30;99.90;;;;;;4994431;28;20183;-64
2023/07/24 04:11:58;;;;;;;4.35;3.95;;;20.40;99.90;;;;;;4974942;28;20220;-64
2023/07/24 04:14:24;;;;;;;4.15;2.90;;;20.30;99.90;;;;;;4975400;28;20254;-61
2023/07/24 04:16:49;;;;;;;4.35;3.45;;;20.40;99.90;;;;;;4974915;28;20277;-62
2023/07/24 04:19:15;;;;;;;3.78;3.08;;;20.40;99.90;;;;;;4975185;28;20180;-61
2023/07/24 04:21:41;;;;;;;3.38;2.75;;;20.40;99.90;;;;;;4977276;28;20199;-64
2023/07/24 04:24:08;;;;;;;4.00;2.95;;;20.40;99.90;;;;;;4978399;28;20255;-65
2023/07/24 04:26:34;;;;;;;3.38;2.45;;;20.40;99.90;;;;;;4978165;28;20246;-64
2023/07/24 04:29:02;;;;;;;3.30;2.30;;;20.40;99.90;;;;;;4978345;28;20184;-65
2023/07/24 04:31:30;;;;;;;7.40;6.05;;;20.40;99.90;;;;;;4978227;28;20172;-64
2023/07/24 04:33:58;;;;;;;9.73;7.28;;;20.50;99.90;;;;;;4977919;28;20175;-64
2023/07/24 04:36:23;;;;;;;5.03;4.53;;;20.50;99.90;;;;;;4977764;28;20208;-64
2023/07/24 04:38:51;;;;;;;4.07;3.45;;;20.50;99.90;;;;;;4977617;28;20271;-65
2023/07/24 04:41:17;;;;;;;5.00;2.78;;;20.50;99.90;;;;;;4993965;28;20203;-63
2023/07/24 04:43:42;;;;;;;3.50;3.03;;;20.50;99.90;;;;;;4994200;28;20288;-64
2023/07/24 04:46:08;;;;;;;3.92;2.47;;;20.60;99.90;;;;;;4982345;28;20219;-65
2023/07/24 04:48:34;;;;;;;3.03;2.30;;;20.60;99.90;;;;;;4963870;28;20226;-65
2023/07/24 04:51:02;;;;;;;3.40;2.83;;;20.60;99.90;;;;;;4976063;28;20216;-64
2023/07/24 04:53:28;;;;;;;3.30;2.60;;;20.60;99.90;;;;;;4977030;28;20180;-66
2023/07/24 04:55:53;;;;;;;3.38;2.72;;;20.70;99.90;;;;;;4977436;28;20226;-65
2023/07/24 04:58:19;;;;;;;3.30;2.45;;;20.70;99.90;;;;;;4977868;28;20183;-66
2023/07/24 05:00:47;;;;;;;4.47;2.60;;;20.70;99.90;;;;;;4977450;28;20208;-65
2023/07/24 05:03:17;;;;;;;3.17;2.42;;;20.80;99.90;;;;;;4977315;28;20175;-65
2023/07/24 05:05:42;;;;;;;4.15;2.90;;;20.80;99.90;;;;;;4977122;28;20191;-65
2023/07/24 05:08:10;;;;;;;3.72;2.58;;;20.90;99.90;;;;;;4977453;28;20192;-64
2023/07/24 05:10:36;;;;;;;3.15;2.53;;;20.90;99.90;;;;;;4976842;28;20198;-65
2023/07/24 05:13:02;;;;;;;3.35;2.47;;;20.90;99.90;;;;;;4977329;28;20223;-65
2023/07/24 05:15:30;;;;;;;3.10;2.33;;;21.00;99.90;;;;;;4977444;28;20173;-64
2023/07/24 05:17:55;;;;;;;3.47;2.70;;;21.00;99.90;;;;;;4977233;28;20207;-65
2023/07/24 05:20:21;;;;;;;3.53;2.30;;;21.00;99.90;;;;;;4977026;28;20187;-64
2023/07/24 05:22:49;;;;;;;3.13;2.40;;;21.00;99.90;;;;;;4977494;28;20231;-65
2023/07/24 05:25:15;;;;;;;2.75;2.30;;;21.00;99.90;;;;;;4975884;28;20307;-64
2023/07/24 05:27:43;;;;;;;2.28;2.00;;;21.00;99.90;;;;;;4993008;28;20192;-65
2023/07/24 05:30:11;;;;;;;3.38;2.30;;;21.10;99.90;;;;;;4977101;28;20180;-64
2023/07/24 05:32:41;;;;;;;4.65;3.20;;;21.10;99.90;;;;;;4977196;28;20183;-64
2023/07/24 05:35:07;;;;;;;3.63;2.60;;;21.20;99.90;;;;;;4976817;28;20180;-63
2023/07/24 05:37:35;;;;;;;3.67;2.38;;;21.20;99.90;;;;;;4976934;28;20200;-64
2023/07/24 05:40:00;;;;;;;3.13;2.22;;;21.20;99.90;;;;;;4976982;28;20268;-64
2023/07/24 05:42:26;;;;;;;3.33;2.60;;;21.30;99.90;;;;;;4976829;28;20285;-65
2023/07/24 05:44:52;;;;;;;3.47;2.63;;;21.40;99.90;;;;;;4975449;28;20192;-63
2023/07/24 05:47:19;;;;;;;3.25;2.47;;;21.50;99.90;;;;;;4976558;28;20188;-64
2023/07/24 05:49:45;;;;;;;3.15;2.50;;;21.50;99.90;;;;;;4992747;28;20192;-64
2023/07/24 05:52:11;;;;;;;4.05;2.88;;;21.60;99.90;;;;;;4992841;28;20288;-66
2023/07/24 05:54:36;;;;;;;5.38;3.05;;;21.70;99.90;;;;;;4969753;28;20188;-65
2023/07/24 05:57:04;;;;;;;4.80;2.53;;;21.80;99.90;;;;;;4969789;28;20184;-62
2023/07/24 05:59:34;;;;;;;3.83;3.00;;;21.80;99.90;;;;;;4984505;28;20361;-64
2023/07/24 06:02:00;;;;;;;3.45;2.53;;;21.90;99.90;;;;;;4976014;28;20219;-65
2023/07/24 06:04:25;;;;;;;3.30;2.58;;;21.90;99.90;;;;;;4992346;28;20271;-61
2023/07/24 06:06:53;;;;;;;3.75;2.72;;;21.90;99.90;;;;;;4976053;28;20168;-64
2023/07/24 06:09:19;;;;;;;3.88;2.90;;;22.00;99.90;;;;;;4976096;28;20405;-64
2023/07/24 06:11:44;;;;;;;4.47;2.95;;;22.00;99.90;;;;;;4973007;28;20180;-64
2023/07/24 06:14:12;;;;;;;3.90;3.08;;;22.00;99.90;;;;;;4956560;29;20251;-64
2023/07/24 06:16:43;;;;;;;3.40;2.72;;;22.00;99.90;;;;;;4966398;28;20179;-63
2023/07/24 06:19:08;;;;;;;4.22;2.80;;;22.00;99.90;;;;;;4975995;28;20191;-64
2023/07/24 06:21:34;;;;;;;3.50;2.65;;;22.10;99.90;;;;;;4975770;28;20202;-64
2023/07/24 06:24:00;;;;;;;3.45;2.97;;;22.10;99.90;;;;;;4970427;28;20171;-64
2023/07/24 06:26:30;;;;;;;4.63;2.97;;;22.10;99.90;;;;;;4975442;28;20516;-65
2023/07/24 06:28:56;;;;;;;4.60;2.90;;;22.20;99.90;;;;;;4975965;28;20191;-64
2023/07/24 06:31:21;;;;;;;4.93;3.03;;;22.20;99.90;;;;;;4975082;28;20184;-61
2023/07/24 06:33:47;;;;;;;3.97;2.70;;;22.30;99.90;;;;;;4984353;28;20173;-64
2023/07/24 06:36:13;;;;;;;6.57;2.85;;;22.30;99.90;;;;;;4973355;28;20180;-65
2023/07/24 06:38:43;;;;;;;3.50;2.67;;;22.40;99.90;;;;;;4975591;28;20258;-65
2023/07/24 06:41:09;;;;;;;4.15;2.90;;;22.40;99.90;;;;;;4975745;28;20199;-63
2023/07/24 06:43:37;;;;;;;3.00;2.45;;;22.50;99.90;;;;;;4975514;28;20200;-65
2023/07/24 06:46:05;;;;;;;4.88;3.20;;;22.50;99.90;;;;;;4976451;28;20164;-72
2023/07/24 06:48:30;;;;;;;4.45;2.75;;;22.50;99.90;;;;;;4974982;28;20203;-73
2023/07/24 06:50:58;;;;;;;2.90;2.30;;;22.50;99.90;;;;;;4975800;28;20225;-71
2023/07/24 06:53:24;;;;;;;3.88;2.70;;;22.50;99.90;;;;;;4975732;28;20199;-70
2023/07/24 06:55:50;;;;;;;3.10;2.50;;;22.50;99.90;;;;;;4975715;28;20200;-70
2023/07/24 06:58:15;;;;;;;2.78;2.30;;;22.50;99.90;;;;;;4975494;28;20187;-71
2023/07/24 07:00:41;;;;;;;3.08;2.30;;;22.60;99.90;;;;;;4956364;28;20188;-72
2023/07/24 07:03:06;;;;;;;3.38;2.58;;;22.60;99.90;;;;;;4973408;28;20298;-72
2023/07/24 07:05:35;;;;;;;3.38;2.20;;;22.60;99.90;;;;;;4975363;28;20176;-71
2023/07/24 07:08:03;;;;;;;2.80;2.30;;;22.70;99.90;;;;;;4975665;28;20202;-72
2023/07/24 07:10:33;;;;;;;4.28;2.30;;;22.70;99.90;;;;;;4975492;28;20199;-70
2023/07/24 07:13:02;;;;;;;5.20;2.88;;;22.70;99.90;;;;;;4975746;28;20171;-69
2023/07/24 07:15:28;;;;;;;3.08;2.40;;;22.70;99.90;;;;;;4975504;28;20179;-72
2023/07/24 07:17:53;;;;;;;4.03;2.67;;;22.80;99.90;;;;;;4975667;28;20437;-73
2023/07/24 07:20:19;;;;;;;2.78;2.45;;;22.80;99.90;;;;;;4975715;28;20200;-70
2023/07/24 07:22:47;;;;;;;2.67;2.20;;;22.80;99.90;;;;;;4970609;28;20263;-71
2023/07/24 07:25:13;;;;;;;3.30;2.65;;;22.90;99.90;;;;;;4966127;28;20176;-73
2023/07/24 07:27:38;;;;;;;3.58;2.38;;;22.90;99.90;;;;;;4975490;28;20195;-71
2023/07/24 07:30:07;;;;;;;4.03;2.45;;;23.00;99.90;;;;;;4975561;28;20168;-72
2023/07/24 07:32:33;;;;;;;3.00;2.25;;;23.00;99.90;;;;;;4991460;28;20216;-72
2023/07/24 07:35:00;;;;;;;2.50;2.30;;;23.00;99.90;;;;;;4991644;28;20176;-72
2023/07/24 07:37:28;;;;;;;2.72;2.03;;;23.10;99.90;;;;;;4983482;28;20179;-72
2023/07/24 07:39:54;;;;;;;2.42;2.08;;;23.10;99.90;;;;;;4975345;28;20184;-72
2023/07/24 07:42:22;;;;;;;2.75;2.10;;;23.10;99.90;;;;;;4975591;28;20192;-72
2023/07/24 07:44:49;;;;;;;2.58;1.92;;;23.20;99.90;;;;;;5001196;28;20212;-63
2023/07/24 07:47:15;;;;;;;2.55;2.28;;;23.20;99.90;;;;;;4993689;28;20199;-69
2023/07/24 07:49:41;;;;;;;3.90;2.60;;;23.20;99.90;;;;;;4996123;28;20188;-72
2023/07/24 07:52:07;;;;;;;2.45;2.03;;;23.20;99.90;;;;;;4976210;28;20177;-70
2023/07/24 07:54:33;;;;;;;2.97;1.92;;;23.30;99.90;;;;;;4975834;28;20187;-71
2023/07/24 07:56:58;;;;;;;3.20;2.40;;;23.30;99.90;;;;;;4974501;28;20200;-71
2023/07/24 07:59:26;;;;;;;3.03;2.20;;;23.30;99.90;;;;;;4991788;28;20413;-71
2023/07/24 08:01:54;;;;;;;2.50;1.95;;;23.30;99.90;;;;;;4976899;28;20279;-69
2023/07/24 08:04:19;;;;;;;3.17;2.38;;;23.30;99.90;;;;;;4974610;28;20223;-70
2023/07/24 08:06:45;;;;;;;2.88;2.50;;;23.30;99.90;;;;;;4975208;28;20182;-71
2023/07/24 08:09:11;;;;;;;3.88;3.08;;;23.40;99.90;;;;;;4976338;28;20206;-71
2023/07/24 08:11:36;;;;;;;3.50;2.95;;;23.40;99.90;;;;;;4978583;28;20259;-71
2023/07/24 08:14:02;;;;;;;2.88;2.40;;;23.50;99.90;;;;;;4975164;28;20247;-68
2023/07/24 08:16:30;;;;;;;2.95;2.35;;;23.50;99.90;;;;;;4975493;28;20204;-71
2023/07/24 08:18:57;;;;;;;3.90;2.55;;;23.50;99.90;;;;;;4978448;28;20253;-68
2023/07/24 08:21:25;;;;;;;3.58;2.70;;;23.50;99.90;;;;;;4978599;28;20223;-71
2023/07/24 08:23:51;;;;;;;2.65;2.10;;;23.60;99.90;;;;;;4994724;28;20203;-71
2023/07/24 08:26:17;;;;;;;2.45;2.25;;;23.60;99.90;;;;;;4978364;28;20176;-69
2023/07/24 08:28:42;;;;;;;3.50;2.40;;;23.60;99.90;;;;;;4978263;28;20211;-71
2023/07/24 08:31:11;;;;;;;2.88;1.98;;;23.60;99.90;;;;;;4974790;28;20181;-68
2023/07/24 08:33:36;;;;;;;2.50;2.10;;;23.60;99.90;;;;;;4958904;28;20188;-71
2023/07/24 08:36:11;;;;;;;2.78;2.20;;;23.60;99.90;;;;;;4977336;28;20199;-71
2023/07/24 08:38:37;;;;;;;4.78;2.47;;;23.70;99.90;;;;;;4965930;28;20188;-72
2023/07/24 08:41:06;;;;;;;3.63;2.30;;;23.70;99.90;;;;;;4976916;28;20206;-70
2023/07/24 08:43:41;;;;;;;2.90;2.13;;;23.80;99.90;;;;;;4959049;28;20271;-71
2023/07/24 08:46:07;;;;;;;3.10;2.05;;;23.80;99.90;;;;;;4972949;28;20184;-71
2023/07/24 08:48:38;;;;;;;4.63;2.20;;;23.90;99.90;;;;;;4981761;28;20274;-71
2023/07/24 08:51:09;;;;;;;3.03;2.30;;;24.00;99.90;;;;;;4993666;28;20199;-72
2023/07/24 08:53:37;;;;;;;2.25;2.05;;;24.10;99.90;;;;;;4972188;28;20189;-72
2023/07/24 08:56:07;;;;;;;3.78;2.70;;;24.10;99.90;;;;;;4994117;28;20464;-71
2023/07/24 08:58:36;;;;;;;3.10;2.50;;;24.30;99.90;;;;;;4976909;28;20199;-73
2023/07/24 09:01:03;;;;;;;2.35;2.10;;;24.30;99.90;;;;;;4977453;28;20208;-72
2023/07/24 09:03:30;;;;;;;2.85;2.33;;;24.40;99.90;;;;;;4977271;28;20267;-72
2023/07/24 09:05:58;;;;;;;2.50;2.15;;;24.50;99.90;;;;;;4973351;28;20251;-70
2023/07/24 09:08:31;;;;;;;2.35;2.15;;;24.50;99.90;;;;;;4970650;28;20208;-74
2023/07/24 09:11:01;;;;;;;2.80;2.13;;;24.50;99.90;;;;;;4977548;28;20172;-70
2023/07/24 09:13:29;;;;;;;2.30;1.92;;;24.40;99.90;;;;;;4965899;28;20185;-74
2023/07/24 09:15:55;;;;;;;2.72;2.00;;;24.40;99.90;;;;;;4964105;28;20188;-71
2023/07/24 09:18:22;;;;;;;2.20;1.80;;;24.40;99.90;;;;;;4976832;28;20235;-72
2023/07/24 09:20:48;;;;;;;2.25;2.05;;;24.30;99.90;;;;;;4978354;28;20239;-70
2023/07/24 09:23:14;;;;;;;2.10;1.85;;;24.30;99.90;;;;;;4977287;28;20229;-70
2023/07/24 09:25:45;;;;;;;1.90;1.50;;;24.30;99.90;;;;;;4977009;28;20242;-73
2023/07/24 09:28:16;;;;;;;2.00;1.80;;;24.30;99.90;;;;;;4995625;28;20221;-70
2023/07/24 09:30:43;;;;;;;2.10;1.60;;;24.30;99.90;;;;;;5005566;28;20187;-70
2023/07/24 09:33:09;;;;;;;2.22;1.67;;;24.30;99.90;;;;;;4977078;28;20454;-73
2023/07/24 09:35:37;;;;;;;2.47;2.00;;;24.30;99.90;;;;;;4976497;28;20172;-69
2023/07/24 09:38:11;;;;;;;3.17;1.70;;;24.40;99.90;;;;;;4993197;28;20212;-70
2023/07/24 09:40:45;;;;;;;1.73;1.60;;;24.30;99.90;;;;;;4969013;28;20231;-74
2023/07/24 09:43:27;;;;;;;2.25;1.80;;;24.40;99.90;;;;;;4972471;28;20188;-71
2023/07/24 09:45:56;;;;;;;2.33;1.80;;;24.50;99.90;;;;;;4976109;28;20200;-72
2023/07/24 09:48:29;;;;;;;2.17;1.63;;;24.50;99.90;;;;;;4971936;28;20241;-72
2023/07/24 09:51:01;;;;;;;1.80;1.60;;;24.50;99.90;;;;;;4973297;28;20184;-72
2023/07/24 09:53:42;;;;;;;2.50;1.73;;;24.60;99.90;;;;;;4957352;28;20184;-71
2023/07/24 09:56:12;;;;;;;3.28;2.00;;;24.60;99.90;;;;;;4972527;28;20314;-71
2023/07/24 09:58:41;;;;;;;2.20;1.80;;;24.70;99.90;;;;;;4976458;28;20226;-71
2023/07/24 10:01:11;;;;;;;1.70;1.52;;;24.70;99.90;;;;;;4989845;28;20257;-68
2023/07/24 10:03:56;;;;;;;2.35;1.90;;;24.70;99.90;;;;;;4976296;28;20231;-71
2023/07/24 10:06:22;;;;;;;2.47;1.73;;;24.80;99.90;;;;;;4960304;28;20184;-72
2023/07/24 10:08:48;;;;;;;3.58;1.65;;;24.80;99.90;;;;;;4966560;28;20174;-70
2023/07/24 10:11:14;;;;;;;1.98;1.58;;;24.90;99.90;;;;;;4965872;28;20204;-74
2023/07/24 10:13:44;;;;;;;1.90;1.67;;;25.00;99.90;;;;;;4966542;28;20268;-73
2023/07/24 10:16:10;;;;;;;1.80;1.63;;;25.00;99.90;;;;;;4963088;28;20227;-71
2023/07/24 10:18:45;;;;;;;2.38;1.83;;;25.10;99.90;;;;;;4974850;28;20185;-71
2023/07/24 10:21:11;;;;;;;1.98;1.70;;;25.20;99.90;;;;;;4975965;28;20210;-70
2023/07/24 10:23:44;;;;;;;1.90;1.65;;;25.30;99.90;;;;;;4997583;28;20196;-61
2023/07/24 10:26:10;;;;;;;2.30;2.00;;;25.40;99.90;;;;;;4978015;28;20180;-69
2023/07/24 10:28:43;;;;;;;1.60;1.42;;;25.40;99.90;;;;;;4981400;28;20569;-70
2023/07/24 10:31:31;;;;;;;1.70;1.58;;;25.50;99.90;;;;;;4976834;28;20176;-71
2023/07/24 10:34:04;;;;;;;2.67;1.95;;;25.60;99.90;;;;;;4976888;28;20190;-71
2023/07/24 10:36:36;;;;;;;2.95;1.92;;;25.70;99.90;;;;;;4990933;28;20176;-74
2023/07/24 10:39:03;;;;;;;2.90;2.10;;;25.70;99.90;;;;;;4984640;28;20175;-75
2023/07/24 10:41:36;;;;;;;3.13;1.95;;;25.80;99.90;;;;;;4975876;28;20208;-70
2023/07/24 10:44:03;;;;;;;2.28;2.08;;;25.80;99.90;;;;;;4976019;28;20280;-73
2023/07/24 10:46:43;;;;;;;2.50;2.00;;;25.80;99.90;;;;;;4975803;28;20186;-72
2023/07/24 10:49:11;;;;;;;2.55;2.10;;;25.80;99.90;;;;;;4975606;28;20195;-74
2023/07/24 10:51:39;;;;;;;2.40;1.95;;;25.80;99.90;;;;;;4974571;28;20184;-74
2023/07/24 10:54:05;;;;;;;2.90;2.10;;;25.80;99.90;;;;;;4975618;28;20251;-74
2023/07/24 10:56:36;;;;;;;2.50;2.03;;;25.80;99.90;;;;;;4976997;28;20256;-77
2023/07/24 10:59:03;;;;;;;2.92;2.25;;;25.70;99.90;;;;;;4976927;28;20215;-71
2023/07/24 11:01:31;;;;;;;2.85;2.20;;;25.80;99.90;;;;;;4976167;28;20519;-71
2023/07/24 11:03:56;;;;;;;3.38;2.55;;;25.70;99.90;;;;;;4992724;28;20266;-71
2023/07/24 11:06:23;;;;;;;2.35;2.13;;;25.70;99.90;;;;;;4976071;28;20214;-76
2023/07/24 11:09:02;;;;;;;2.78;2.30;;;25.70;99.90;;;;;;4975923;28;20187;-74
2023/07/24 11:11:31;;;;;;;3.63;2.00;;;25.80;99.90;;;;;;4976115;28;20171;-77
2023/07/24 11:14:04;;;;;;;2.63;2.08;;;25.80;99.90;;;;;;4992009;28;20283;-70
2023/07/24 11:16:31;;;;;;;1.92;1.67;;;25.80;99.90;;;;;;4976813;28;20263;-73
2023/07/24 11:18:59;;;;;;;3.17;2.25;;;25.80;99.90;;;;;;4975871;28;20179;-77
2023/07/24 11:21:25;;;;;;;2.47;1.90;;;25.80;99.90;;;;;;4975579;28;20231;-75
2023/07/24 11:23:57;;;;;;;2.83;2.00;;;25.80;99.90;;;;;;4973848;28;20190;-75
2023/07/24 11:26:25;;;;;;;2.45;2.10;;;25.90;99.90;;;;;;4974491;28;20231;-76
2023/07/24 11:28:52;;;;;;;2.83;2.08;;;26.00;99.90;;;;;;4975569;28;20188;-75
2023/07/24 11:31:21;;;;;;;2.53;2.17;;;26.10;99.90;;;;;;4974569;28;20172;-72
2023/07/24 11:33:49;;;;;;;2.42;2.17;;;26.10;99.90;;;;;;4971549;28;20204;-74
2023/07/24 11:36:15;;;;;;;2.97;2.30;;;26.20;99.90;;;;;;4972373;28;20216;-72
2023/07/24 11:38:42;;;;;;;2.60;1.88;;;26.40;99.90;;;;;;4962872;28;20187;-76
2023/07/24 11:41:13;;;;;;;3.53;2.40;;;26.50;99.90;;;;;;4973819;28;20240;-76
2023/07/24 11:43:49;;;;;;;3.03;2.70;;;26.60;99.90;;;;;;4957351;28;20243;-75
2023/07/24 11:46:32;;;;;;;2.88;2.30;;;26.60;99.90;;;;;;4976431;28;20227;-76
2023/07/24 11:48:57;;;;;;;3.30;2.45;;;26.60;99.90;;;;;;4978432;28;20279;-76
2023/07/24 11:51:28;;;;;;;2.53;2.17;;;26.60;99.90;;;;;;4979712;28;20207;-72
2023/07/24 11:54:06;;;;;;;3.03;2.30;;;26.60;99.90;;;;;;4975874;28;20200;-72
2023/07/24 11:56:32;;;;;;;3.35;2.28;;;26.60;99.90;;;;;;4977695;28;20176;-72
2023/07/24 11:58:57;;;;;;;2.60;2.00;;;26.60;99.90;;;;;;4974889;28;20192;-74
2023/07/24 12:01:25;;;;;;;3.00;2.25;;;26.60;99.90;;;;;;4976481;28;20204;-73
2023/07/24 12:03:51;;;;;;;4.32;2.17;;;26.50;99.90;;;;;;4973229;28;20177;-72
2023/07/24 12:06:23;;;;;;;2.85;2.15;;;26.40;99.90;;;;;;4978310;28;20196;-74
2023/07/24 12:08:49;;;;;;;2.85;2.13;;;26.30;99.90;;;;;;4964375;28;20488;-75
2023/07/24 12:11:21;;;;;;;3.30;2.30;;;26.30;99.90;;;;;;4966136;28;20213;-72
2023/07/24 12:13:47;;;;;;;3.08;2.17;;;26.20;99.90;;;;;;4994196;28;20259;-74
2023/07/24 12:16:14;;;;;;;2.92;2.10;;;26.10;99.90;;;;;;4979766;28;20259;-73
2023/07/24 12:18:42;;;;;;;3.60;1.85;;;26.10;99.90;;;;;;4987777;28;20208;-72
2023/07/24 12:21:10;;;;;;;2.83;1.90;;;25.90;99.90;;;;;;4978374;28;20200;-71
2023/07/24 12:23:36;;;;;;;3.42;2.00;;;25.80;99.90;;;;;;4978089;28;20480;-71
2023/07/24 12:26:01;;;;;;;2.28;1.50;;;25.70;99.90;;;;;;4978337;28;20209;-74
2023/07/24 12:28:29;;;;;;;1.40;1.10;;;25.50;99.90;;;;;;4974975;28;20173;-74
2023/07/24 12:30:55;;;;;;;1.33;1.08;;;25.20;99.90;;;;;;4966155;28;20203;-72
2023/07/24 12:33:23;;;;;;;1.92;1.50;;;24.80;99.90;;;;;;4978395;28;20179;-74
2023/07/24 12:35:49;;;;;;;1.90;1.50;;;24.40;99.90;;;;;;4978118;28;20198;-72
2023/07/24 12:38:15;;;;;;;2.92;1.60;;;24.00;99.90;;;;;;4977784;28;20210;-71
2023/07/24 12:40:41;;;;;;;1.85;1.40;;;23.50;99.90;;;;;;4974200;28;20240;-74
2023/07/24 12:43:06;;;;;;;2.88;1.77;;;23.10;99.90;;;;;;4977876;28;20208;-75
2023/07/24 12:45:34;;;;;;;2.55;1.55;;;22.70;99.90;;;;;;4976929;28;20199;-72
2023/07/24 12:48:00;;;;;;;5.15;1.65;;;22.50;99.90;;;;;;5194625;23;20194;-70
2023/07/24 12:50:28;;;;;;;1.90;1.52;;;22.50;99.90;;;;;;5013216;28;20214;-74
2023/07/24 12:52:54;;;;;;;2.42;1.77;;;22.50;99.90;;;;;;4992443;28;20198;-73